Observations for CERVIA IT-AFB, Italy (LIPC)

LIPC 191955Z 17004KT CAVOK 15/13 Q1016  
LIPC 191955Z 17004KT CAVOK 15/13 Q1016 RMK SKC VIS MIN 9999 WIND THR11 /////KT WIND THR29 17003KT BLU
LIPC 191855Z 15004KT CAVOK 17/13 Q1015  
LIPC 191855Z 15004KT CAVOK 17/13 Q1015 RMK FEW FEW200 VIS MIN 9999 WIND THR11 /////KT WIND THR29 14003KT BLU
LIPC 191755Z 15003KT CAVOK 18/13 Q1016  
LIPC 191755Z 15003KT CAVOK 18/13 Q1016 RMK FEW FEW160 VIS MIN 9999 WIND THR11/////KT WIND THR29 15003KT BLU
LIPC 191655Z VRB02KT CAVOK 20/13 Q1015  
LIPC 191655Z VRB02KT CAVOK 20/13 Q1015 RMK SCT SCT150 VIS MIN 9999 WIND THR11/////KT WIND THR29 15004KT BLU
LIPC 191555Z 20006KT CAVOK 22/13 Q1015  
LIPC 191555Z 20006KT CAVOK 22/13 Q1015 RMK FEW FEW150 VIS MIN 9999 WIND THR11/////KT WIND THR29 20005KT BLU
LIPC 191455Z 21008KT 9999 FEW060 23/13 Q1015
LIPC 191455Z 21008KT 9999 FEW060 23/13 Q1015 RMK FEW VIS MIN 9999 WIND THR11/////KT WIND THR29 21008KT BLU
LIPC 191355Z 11007KT 9999 BKN060 22/15 Q1015
LIPC 191355Z 11007KT 9999 BKN060 22/15 Q1015 RMK BKN VIS MIN 9999 WIND THR11/////KT WIND THR29 11007KT BLU
LIPC 191255Z 09006KT 9999 FEW050 SCT060 23/14 Q1015 
LIPC 191255Z 09006KT 9999 FEW050 SCT060 23/14 Q1015 RMK BKN VIS MIN 9999 WIND THR11/////KT WIND THR29 10008KT BLU
LIPC 191155Z 08007KT 9999 SCT050 23/14 Q1015
LIPC 191155Z 08007KT 9999 SCT050 23/14 Q1015 RMK SCT VIS MIN 9999 WIND THR11/////KT WIND THR29 10010KT BLU
LIPC 191055Z 22006KT 170V270 CAVOK 23/13 Q1015  
LIPC 191055Z 22006KT 170V270 CAVOK 23/13 Q1015 RMK SCT SCT070 VIS MIN 9999 WINDTHR11/////KT WIND THR29 23004KT BLU
LIPC 190955Z 16005KT 080V210 CAVOK 23/13 Q1015  
LIPC 190955Z 16005KT 080V210 CAVOK 23/13 Q1015 RMK FEW FEW150 VIS MIN 9999 WINDTHR11/////KT WIND THR29 17004KT BLU
LIPC 190855Z 17005KT 130V200 CAVOK 22/13 Q1016  
LIPC 190855Z 17005KT 130V200 CAVOK 22/13 Q1016 RMK FEW FEW160 VIS MIN 9999 WINDTHR11/////KT WIND THR29 17004KT BLU
LIPC 190755Z 15004KT CAVOK 18/14 Q1016  
LIPC 190755Z 15004KT CAVOK 18/14 Q1016 RMK SCT SCT150 VIS MIN 9999 WIND THR11/////KT WIND THR29 17003KT BLU
LIPC 190655Z 16003KT CAVOK 14/13 Q1016  
LIPC 190655Z 16003KT CAVOK 14/13 Q1016 RMK FEW FEW130 VIS MIN 9999 WIND THR11/////KT WIND THR29 19002KT BLU
LIPC 190555Z 26002KT CAVOK 12/12 Q1015  
LIPC 190555Z 26002KT CAVOK 12/12 Q1015 RMK SKC VIS MIN 9999 WIND THR11 /////KT WIND THR29 21002KT BLU
LIPC 190455Z 19003KT CAVOK 13/12 Q1015  
LIPC 190455Z 19003KT CAVOK 13/12 Q1015 RMK FEW FEW070 VIS MIN 9999 WIND THR11 /////KT WIND THR29 19002KT BLU
LIPC 190355Z 17002KT CAVOK 14/12 Q1016  
LIPC 190355Z 17002KT CAVOK 14/12 Q1016 RMK SCT SCT070 VIS MIN 9999 WIND THR11 /////KT WIND THR29 16002KT BLU
LIPC 190255Z 19003KT CAVOK 14/12 Q1016  
LIPC 190255Z 19003KT CAVOK 14/12 Q1016 RMK SCT SCT070 VIS MIN 9999 WIND THR11 /////KT WIND THR29 18002KT BLU
LIPC 190155Z 17002KT 9999 FEW060 15/13 Q1016
LIPC 190155Z 17002KT 9999 FEW060 15/13 Q1016 RMK SCT SCT070 VIS MIN 9999 WIND THR11 /////KT WIND THR29 17002KT BLU
LIPC 190055Z 19002KT 9999 FEW060 16/14 Q1016
LIPC 190055Z 19002KT 9999 FEW060 16/14 Q1016 RMK BKN SCT070 VIS MIN 9999 WIND THR11 /////KT WIND THR29 18002KT BLU
LIPC 182355Z 24001KT CAVOK 16/14 Q1016  
LIPC 182355Z 24001KT CAVOK 16/14 Q1016 RMK SCT SCT070 VIS MIN 9999 WIND THR11 /////KT WIND THR29 21001KT BLU
LIPC 182255Z 16003KT CAVOK 15/14 Q1016  
LIPC 182255Z 16003KT CAVOK 15/14 Q1016 RMK SCT SCT070 VIS MIN 9999 WIND THR11 /////KT WIND THR29 16002KT BLU
LIPC 182155Z 20003KT CAVOK 15/14 Q1016  
LIPC 182155Z 20003KT CAVOK 15/14 Q1016 RMK FEW FEW070 VIS MIN 9999 WIND THR11 /////KT WIND THR29 20003KT BLU
LIPC 182055Z 21004KT CAVOK 15/14 Q1017  
LIPC 182055Z 21004KT CAVOK 15/14 Q1017 RMK SKC VIS MIN 9999 WIND THR11 /////KT WIND THR29 21004KT BLU
LIPC 181955Z 17001KT CAVOK 15/14 Q1016  
LIPC 181955Z 17001KT CAVOK 15/14 Q1016 RMK SKC VIS MIN 9999 WIND THR11 /////KT WIND THR29 20001KT BLU